This is the latest recevied weather packets stored in our database for station/object EA4IAJ-12. If no packets are shown the sender has not sent any weather packets the latest 10 day(s).
| Time | Temp. | Humidity | Pressure | Rain* | Wind** | Luminosity | Snow |
|---|---|---|---|---|---|---|---|
| 1777785321 | 12.22° C | 100% | 1003.7 hPa | - | - | - | - |
| 1777784421 | 12.22° C | 100% | 1002.3 hPa | - | - | - | - |
| 1777783520 | 12.22° C | 100% | 1003 hPa | - | - | - | - |
| 1777782620 | 11.67° C | 100% | 1002.4 hPa | - | - | - | - |
| 1777781719 | 12.22° C | 100% | 1004.1 hPa | - | - | - | - |
| 1777780819 | 12.78° C | 100% | 1005 hPa | - | - | - | - |
| 1777779930 | 12.22° C | 100% | 1004.2 hPa | - | - | - | - |
| 1777779029 | 12.78° C | 100% | 1004.8 hPa | - | - | - | - |
| 1777778129 | 12.78° C | 100% | 1004.7 hPa | - | - | - | - |
| 1777776328 | 12.78° C | 100% | 1004.8 hPa | - | - | - | - |
| 1777775427 | 12.78° C | 100% | 1005.3 hPa | - | - | - | - |
| 1777774526 | 12.78° C | 100% | 1005.3 hPa | - | - | - | - |
| 1777773626 | 12.78° C | 100% | 1004.3 hPa | - | - | - | - |
| 1777772725 | 12.22° C | 100% | 1002.3 hPa | - | - | - | - |
| 1777771825 | 12.22° C | 100% | 1002.3 hPa | - | - | - | - |
| 1777770925 | 12.22° C | 100% | 1003 hPa | - | - | - | - |
| 1777770024 | 12.78° C | 100% | 1003.4 hPa | - | - | - | - |
| 1777769124 | 12.78° C | 100% | 1004.6 hPa | - | - | - | - |
| 1777768223 | 13.33° C | 100% | 1006.9 hPa | - | - | - | - |
| 1777767323 | 13.89° C | 100% | 1008 hPa | - | - | - | - |
| 1777766422 | 13.89° C | 100% | 1008.2 hPa | - | - | - | - |
| 1777765521 | 13.89° C | 100% | 1008.3 hPa | - | - | - | - |
| 1777764621 | 13.89° C | 100% | 1008.5 hPa | - | - | - | - |
| 1777763720 | 13.89° C | 100% | 1008 hPa | - | - | - | - |
| 1777762820 | 14.44° C | 100% | 1008.9 hPa | - | - | - | - |
* Rain since midnight (hover to see other rain measurements)
** Current wind speed in m/s (hover to see current wind gust speed)